Time;durP1;ratioP1;P1;durP2;ratioP2;P2;SDS_P1;SDS_P2;PMS_P1;PMS_P2;Temp;Humidity;BMP_temperature;BMP_pressure;BME280_temperature;BME280_humidity;BME280_pressure;Samples;Min_cycle;Max_cycle;Signal;HPM_P1;HPM_P2
2023/07/04 00:01:03;;;;;;;4.68;3.60;;;;;;;;;;4711312;30;20189;-84
2023/07/04 00:03:32;;;;;;;3.80;3.42;;;;;;;;;;4723756;30;20045;-84
2023/07/04 00:05:59;;;;;;;3.60;3.30;;;;;;;;;;4708375;30;20056;-84
2023/07/04 00:08:28;;;;;;;4.93;3.10;;;;;;;;;;4713547;30;20041;-84
2023/07/04 00:10:58;;;;;;;3.65;3.25;;;;;;;;;;4722957;30;20053;-84
2023/07/04 00:13:27;;;;;;;4.20;3.13;;;;;;;;;;4712603;30;20057;-84
2023/07/04 00:15:56;;;;;;;4.47;3.15;;;;;;;;;;4711568;30;20060;-83
2023/07/04 00:18:24;;;;;;;3.63;3.33;;;;;;;;;;4714300;30;20602;-85
2023/07/04 00:20:56;;;;;;;5.07;3.20;;;;;;;;;;4712563;30;20067;-85
2023/07/04 00:23:28;;;;;;;6.45;3.67;;;;;;;;;;4711917;30;20060;-85
2023/07/04 00:25:55;;;;;;;3.40;2.95;;;;;;;;;;4711643;30;20475;-84
2023/07/04 00:28:23;;;;;;;3.53;2.70;;;;;;;;;;4714005;30;20121;-85
2023/07/04 00:30:52;;;;;;;3.28;2.97;;;;;;;;;;4713713;30;20129;-85
2023/07/04 00:33:21;;;;;;;3.47;3.05;;;;;;;;;;4710994;30;20528;-83
2023/07/04 00:36:07;;;;;;;5.22;3.40;;;;;;;;;;4710506;30;20061;-84
2023/07/04 00:38:35;;;;;;;3.78;3.30;;;;;;;;;;4711169;30;20060;-84
2023/07/04 00:41:13;;;;;;;3.38;3.08;;;;;;;;;;4711451;30;20115;-85
2023/07/04 00:43:45;;;;;;;4.38;3.55;;;;;;;;;;4710602;30;20057;-84
2023/07/04 00:46:15;;;;;;;3.88;3.47;;;;;;;;;;4710832;30;20099;-85
2023/07/04 00:48:47;;;;;;;3.65;3.35;;;;;;;;;;4709286;30;20131;-84
2023/07/04 00:51:21;;;;;;;3.80;3.45;;;;;;;;;;4713413;30;20059;-85
2023/07/04 00:53:53;;;;;;;3.45;3.00;;;;;;;;;;4709964;30;20093;-85
2023/07/04 00:56:25;;;;;;;5.07;3.35;;;;;;;;;;4711693;30;20060;-85
2023/07/04 00:58:59;;;;;;;3.92;3.45;;;;;;;;;;4709952;30;20694;-85
2023/07/04 01:01:27;;;;;;;3.58;3.15;;;;;;;;;;4711673;30;20049;-84
2023/07/04 01:03:56;;;;;;;3.83;3.45;;;;;;;;;;4711064;30;20140;-85
2023/07/04 01:06:27;;;;;;;5.40;3.65;;;;;;;;;;4706519;30;20057;-85
2023/07/04 01:08:57;;;;;;;4.07;3.65;;;;;;;;;;4715325;30;20168;-85
2023/07/04 01:11:29;;;;;;;5.13;3.60;;;;;;;;;;4710326;30;20061;-86
2023/07/04 01:13:57;;;;;;;3.88;3.42;;;;;;;;;;4704441;30;20061;-84
2023/07/04 01:16:25;;;;;;;4.00;3.42;;;;;;;;;;4710902;30;20524;-84
2023/07/04 01:18:55;;;;;;;3.70;3.40;;;;;;;;;;4717097;30;20131;-85
2023/07/04 01:21:24;;;;;;;6.70;3.88;;;;;;;;;;4703402;30;20054;-85
2023/07/04 01:23:54;;;;;;;4.07;3.30;;;;;;;;;;4706619;30;20107;-83
2023/07/04 01:26:30;;;;;;;3.80;3.47;;;;;;;;;;4708694;30;20059;-84
2023/07/04 01:28:58;;;;;;;5.60;4.03;;;;;;;;;;4711432;30;20178;-85
2023/07/04 01:31:27;;;;;;;4.13;3.70;;;;;;;;;;4702828;30;20576;-84
2023/07/04 01:33:54;;;;;;;4.15;3.50;;;;;;;;;;4705526;30;20539;-84
2023/07/04 01:36:24;;;;;;;4.53;3.50;;;;;;;;;;4710561;30;20048;-84
2023/07/04 01:38:52;;;;;;;4.40;3.53;;;;;;;;;;4724060;30;20075;-85
2023/07/04 01:41:21;;;;;;;3.65;3.28;;;;;;;;;;4710773;30;20063;-84
2023/07/04 01:43:56;;;;;;;3.58;3.28;;;;;;;;;;4721708;30;20479;-84
2023/07/04 01:46:24;;;;;;;4.60;3.33;;;;;;;;;;4708042;30;20045;-84
2023/07/04 01:48:52;;;;;;;3.60;3.30;;;;;;;;;;4709893;30;21136;-85
2023/07/04 01:51:26;;;;;;;3.60;3.25;;;;;;;;;;4707447;30;20131;-85
2023/07/04 01:53:53;;;;;;;5.18;3.80;;;;;;;;;;4707788;30;20049;-84
2023/07/04 01:56:22;;;;;;;4.32;3.40;;;;;;;;;;4693338;30;20525;-84
2023/07/04 01:58:49;;;;;;;5.30;3.60;;;;;;;;;;4721963;30;20052;-85
2023/07/04 02:01:19;;;;;;;4.55;3.47;;;;;;;;;;4707487;30;20434;-84
2023/07/04 02:03:47;;;;;;;4.47;3.50;;;;;;;;;;4710428;30;20049;-85
2023/07/04 02:06:15;;;;;;;3.92;3.63;;;;;;;;;;4708960;30;20076;-85
2023/07/04 02:08:42;;;;;;;4.88;3.50;;;;;;;;;;4707602;30;20089;-84
2023/07/04 02:11:10;;;;;;;3.80;3.50;;;;;;;;;;4721366;30;20049;-85
2023/07/04 02:13:37;;;;;;;6.43;3.38;;;;;;;;;;4705707;30;20056;-84
2023/07/04 02:16:05;;;;;;;4.00;3.60;;;;;;;;;;4703405;30;20441;-85
2023/07/04 02:18:33;;;;;;;3.78;3.40;;;;;;;;;;4693673;30;20144;-85
2023/07/04 02:21:00;;;;;;;5.18;3.88;;;;;;;;;;4693650;30;20146;-85
2023/07/04 02:23:28;;;;;;;6.80;3.65;;;;;;;;;;4709251;30;20409;-84
2023/07/04 02:25:55;;;;;;;5.18;3.35;;;;;;;;;;4708875;30;22141;-85
2023/07/04 02:28:23;;;;;;;4.15;3.45;;;;;;;;;;4707615;30;20057;-85
2023/07/04 02:30:58;;;;;;;3.53;3.20;;;;;;;;;;4721063;30;20157;-84
2023/07/04 02:33:27;;;;;;;4.30;3.30;;;;;;;;;;4718865;30;20140;-84
2023/07/04 02:35:55;;;;;;;3.75;3.42;;;;;;;;;;4708204;30;20059;-84
2023/07/04 02:38:23;;;;;;;4.20;3.50;;;;;;;;;;4709250;30;20072;-85
2023/07/04 02:40:51;;;;;;;4.50;3.40;;;;;;;;;;4708018;30;20053;-84
2023/07/04 02:43:19;;;;;;;3.83;3.53;;;;;;;;;;4709648;30;20053;-84
2023/07/04 02:45:48;;;;;;;4.35;3.67;;;;;;;;;;4709309;30;20145;-84
2023/07/04 02:48:16;;;;;;;4.00;3.60;;;;;;;;;;4706714;30;20137;-84
2023/07/04 02:50:43;;;;;;;5.53;3.50;;;;;;;;;;4706752;30;20444;-84
2023/07/04 02:53:11;;;;;;;3.53;3.22;;;;;;;;;;4719360;30;20684;-84
2023/07/04 02:55:39;;;;;;;4.20;3.78;;;;;;;;;;4705029;30;20068;-84
2023/07/04 02:58:07;;;;;;;3.92;3.63;;;;;;;;;;4719975;30;20120;-84
2023/07/04 03:00:35;;;;;;;4.20;3.58;;;;;;;;;;4707890;30;20057;-84
2023/07/04 03:03:03;;;;;;;4.13;3.58;;;;;;;;;;4708476;30;20052;-84
2023/07/04 03:05:32;;;;;;;4.05;3.38;;;;;;;;;;4708026;30;20103;-84
2023/07/04 03:07:59;;;;;;;3.60;3.30;;;;;;;;;;4706715;30;20490;-85
2023/07/04 03:10:27;;;;;;;4.07;3.67;;;;;;;;;;4708901;30;20110;-83
2023/07/04 03:12:55;;;;;;;3.95;3.53;;;;;;;;;;4723050;30;20136;-87
2023/07/04 03:15:27;;;;;;;4.82;4.18;;;;;;;;;;4700454;30;20659;-87
2023/07/04 03:17:54;;;;;;;4.07;3.70;;;;;;;;;;4708939;30;20056;-86
2023/07/04 03:20:22;;;;;;;4.25;3.90;;;;;;;;;;4722726;30;20057;-87
2023/07/04 03:22:53;;;;;;;4.03;3.63;;;;;;;;;;4709739;30;20041;-86
2023/07/04 03:25:22;;;;;;;4.43;4.03;;;;;;;;;;4710161;30;20543;-87
2023/07/04 03:27:54;;;;;;;6.03;4.20;;;;;;;;;;4710102;30;20053;-86
2023/07/04 03:30:26;;;;;;;5.82;4.20;;;;;;;;;;4707587;30;20483;-87
2023/07/04 03:33:02;;;;;;;5.47;3.95;;;;;;;;;;4701309;30;20076;-90
2023/07/04 03:35:29;;;;;;;6.43;4.20;;;;;;;;;;4708513;30;20057;-87
2023/07/04 03:38:01;;;;;;;4.95;4.32;;;;;;;;;;4707466;30;20057;-87
2023/07/04 03:40:29;;;;;;;6.88;3.90;;;;;;;;;;4707857;30;20114;-88
2023/07/04 03:42:56;;;;;;;3.90;3.60;;;;;;;;;;4706348;30;20052;-86
2023/07/04 03:45:24;;;;;;;8.27;3.80;;;;;;;;;;4707212;30;20067;-87
2023/07/04 03:47:54;;;;;;;4.22;3.83;;;;;;;;;;4706017;30;20072;-88
2023/07/04 03:50:22;;;;;;;4.50;3.70;;;;;;;;;;4704161;30;20079;-87
2023/07/04 03:52:50;;;;;;;5.10;4.70;;;;;;;;;;4708162;30;20572;-86
2023/07/04 03:55:17;;;;;;;5.28;4.18;;;;;;;;;;4707076;30;20570;-86
2023/07/04 03:57:45;;;;;;;4.43;4.03;;;;;;;;;;4705367;30;20077;-86
2023/07/04 04:00:12;;;;;;;4.50;4.10;;;;;;;;;;4705416;30;20463;-87
2023/07/04 04:02:58;;;;;;;4.78;4.07;;;;;;;;;;4708537;30;20053;-87
2023/07/04 04:05:26;;;;;;;4.38;3.95;;;;;;;;;;4709782;30;20049;-88
2023/07/04 04:07:54;;;;;;;4.30;3.88;;;;;;;;;;4703162;30;20061;-88
2023/07/04 04:10:22;;;;;;;4.57;4.05;;;;;;;;;;4703133;30;20539;-88
2023/07/04 04:12:49;;;;;;;6.70;4.80;;;;;;;;;;4703584;30;20064;-87
2023/07/04 04:15:16;;;;;;;5.07;4.55;;;;;;;;;;4705060;30;20436;-87
2023/07/04 04:17:44;;;;;;;6.72;4.93;;;;;;;;;;4706342;30;20080;-87
2023/07/04 04:20:12;;;;;;;4.47;4.07;;;;;;;;;;4706980;30;20523;-86
2023/07/04 04:22:45;;;;;;;4.28;3.88;;;;;;;;;;4706170;30;20490;-86
2023/07/04 04:25:14;;;;;;;4.93;4.43;;;;;;;;;;4705664;30;20046;-85
2023/07/04 04:27:42;;;;;;;4.40;4.00;;;;;;;;;;4699742;30;20053;-85
2023/07/04 04:30:10;;;;;;;5.00;4.25;;;;;;;;;;4704621;30;20057;-85
2023/07/04 04:32:39;;;;;;;4.97;4.10;;;;;;;;;;4708055;30;20053;-85
2023/07/04 04:35:09;;;;;;;4.68;4.10;;;;;;;;;;4709438;30;20107;-86
2023/07/04 04:37:37;;;;;;;6.22;5.18;;;;;;;;;;4707722;30;20053;-86
2023/07/04 04:40:06;;;;;;;4.88;4.38;;;;;;;;;;4707757;30;20086;-86
2023/07/04 04:42:34;;;;;;;4.60;4.20;;;;;;;;;;4691418;30;20482;-86
2023/07/04 04:45:03;;;;;;;4.50;4.10;;;;;;;;;;4708842;30;20752;-86
2023/07/04 04:47:38;;;;;;;4.65;4.00;;;;;;;;;;4706609;30;20045;-85
2023/07/04 04:50:07;;;;;;;5.38;4.47;;;;;;;;;;4717982;30;20057;-86
2023/07/04 04:52:37;;;;;;;5.17;4.57;;;;;;;;;;4716218;30;20045;-86
2023/07/04 04:55:05;;;;;;;4.45;4.05;;;;;;;;;;4708234;30;20883;-86
2023/07/04 04:57:34;;;;;;;5.07;4.00;;;;;;;;;;4706569;30;20057;-86
2023/07/04 05:00:05;;;;;;;4.85;4.20;;;;;;;;;;4707238;30;20061;-86
2023/07/04 05:02:33;;;;;;;5.57;4.63;;;;;;;;;;4707539;30;20088;-86
2023/07/04 05:05:00;;;;;;;6.40;4.43;;;;;;;;;;4709315;30;20049;-85
2023/07/04 05:07:28;;;;;;;4.72;4.32;;;;;;;;;;4718492;30;20067;-86
2023/07/04 05:09:58;;;;;;;4.63;4.22;;;;;;;;;;4707040;30;20057;-85
2023/07/04 05:12:25;;;;;;;5.03;4.28;;;;;;;;;;4709681;30;21252;-86
2023/07/04 05:14:52;;;;;;;6.32;4.63;;;;;;;;;;4713571;30;20049;-86
2023/07/04 05:17:20;;;;;;;5.75;4.30;;;;;;;;;;4709526;30;20045;-87
2023/07/04 05:19:48;;;;;;;5.30;4.07;;;;;;;;;;4709556;30;20057;-85
2023/07/04 05:22:19;;;;;;;5.03;4.28;;;;;;;;;;4708793;30;20041;-85
2023/07/04 05:24:47;;;;;;;4.63;4.22;;;;;;;;;;4707467;30;20159;-85
2023/07/04 05:27:16;;;;;;;5.00;4.50;;;;;;;;;;4707202;30;20056;-84
2023/07/04 05:29:47;;;;;;;4.28;3.90;;;;;;;;;;4709104;30;20103;-86
2023/07/04 05:32:14;;;;;;;4.40;4.00;;;;;;;;;;4706818;30;20055;-86
2023/07/04 05:34:46;;;;;;;6.35;4.60;;;;;;;;;;4708032;30;20057;-85
2023/07/04 05:37:13;;;;;;;4.97;4.40;;;;;;;;;;4710808;30;20833;-86
2023/07/04 05:39:40;;;;;;;5.07;4.57;;;;;;;;;;4711541;30;20045;-85
2023/07/04 05:42:08;;;;;;;4.97;4.47;;;;;;;;;;4705368;30;20436;-86
2023/07/04 05:44:35;;;;;;;4.97;4.57;;;;;;;;;;4706939;30;21644;-85
2023/07/04 05:47:03;;;;;;;4.85;4.45;;;;;;;;;;4712094;30;20072;-86
2023/07/04 05:49:30;;;;;;;7.22;4.78;;;;;;;;;;4709983;30;20573;-86
2023/07/04 05:51:58;;;;;;;4.95;4.53;;;;;;;;;;4710807;30;20724;-86
2023/07/04 05:54:25;;;;;;;4.90;4.43;;;;;;;;;;4715347;30;20598;-88
2023/07/04 05:56:57;;;;;;;7.57;5.18;;;;;;;;;;4712214;30;20176;-86
2023/07/04 05:59:25;;;;;;;4.55;3.97;;;;;;;;;;4716212;30;20061;-87
2023/07/04 06:01:53;;;;;;;5.07;4.68;;;;;;;;;;4705779;30;20107;-85
2023/07/04 06:04:20;;;;;;;5.20;4.70;;;;;;;;;;4714095;30;20080;-85
2023/07/04 06:06:52;;;;;;;4.55;4.15;;;;;;;;;;4709472;30;20071;-85
2023/07/04 06:09:20;;;;;;;4.82;4.43;;;;;;;;;;4707250;30;20061;-85
2023/07/04 06:11:48;;;;;;;6.75;4.47;;;;;;;;;;4706707;30;20082;-86
2023/07/04 06:14:23;;;;;;;4.70;4.28;;;;;;;;;;4707803;30;20092;-85
2023/07/04 06:16:51;;;;;;;4.88;4.47;;;;;;;;;;4709556;30;20084;-85
2023/07/04 06:19:19;;;;;;;5.57;4.30;;;;;;;;;;4709587;30;20139;-84
2023/07/04 06:21:47;;;;;;;5.70;4.60;;;;;;;;;;4705910;30;20126;-85
2023/07/04 06:24:15;;;;;;;8.30;5.82;;;;;;;;;;4702974;30;20137;-86
2023/07/04 06:26:43;;;;;;;6.68;5.15;;;;;;;;;;4709584;30;20115;-85
2023/07/04 06:29:11;;;;;;;6.40;4.88;;;;;;;;;;4705345;30;21641;-84
2023/07/04 06:31:41;;;;;;;5.63;4.60;;;;;;;;;;4707786;30;20085;-84
2023/07/04 06:34:11;;;;;;;6.28;4.47;;;;;;;;;;4708319;30;20429;-85
2023/07/04 06:36:38;;;;;;;5.68;4.47;;;;;;;;;;4699608;30;20057;-83
2023/07/04 06:39:06;;;;;;;5.60;4.78;;;;;;;;;;4706433;30;20084;-85
2023/07/04 06:41:33;;;;;;;5.28;4.78;;;;;;;;;;4700977;30;20060;-84
2023/07/04 06:44:01;;;;;;;4.65;4.25;;;;;;;;;;4701261;30;20197;-84
2023/07/04 06:46:28;;;;;;;6.03;4.22;;;;;;;;;;4701675;30;20176;-83
2023/07/04 06:48:56;;;;;;;6.47;4.40;;;;;;;;;;4705193;30;20053;-83
2023/07/04 06:51:26;;;;;;;7.57;4.22;;;;;;;;;;4713066;30;20131;-87
2023/07/04 06:53:53;;;;;;;5.25;3.83;;;;;;;;;;4708052;30;20070;-85
2023/07/04 06:56:22;;;;;;;5.35;4.15;;;;;;;;;;4709925;30;20402;-84
2023/07/04 06:58:54;;;;;;;4.43;3.78;;;;;;;;;;4712005;30;20516;-85
2023/07/04 07:01:23;;;;;;;5.38;3.70;;;;;;;;;;4706342;30;20151;-85
2023/07/04 07:03:51;;;;;;;4.43;3.67;;;;;;;;;;4704394;30;20079;-85
2023/07/04 07:06:19;;;;;;;4.63;3.30;;;;;;;;;;4705426;30;20057;-85
2023/07/04 07:08:47;;;;;;;3.25;2.95;;;;;;;;;;4709495;30;20049;-84
2023/07/04 07:11:16;;;;;;;3.42;3.10;;;;;;;;;;4704531;30;20599;-84
2023/07/04 07:13:44;;;;;;;4.07;3.53;;;;;;;;;;4705666;30;20060;-85
2023/07/04 07:16:13;;;;;;;6.75;3.42;;;;;;;;;;4703346;30;20520;-84
2023/07/04 07:18:41;;;;;;;2.70;2.50;;;;;;;;;;4706375;30;20057;-83
2023/07/04 07:21:10;;;;;;;3.15;2.38;;;;;;;;;;4711504;30;20199;-83
2023/07/04 07:23:38;;;;;;;2.35;2.15;;;;;;;;;;4708793;30;20045;-84
2023/07/04 07:26:07;;;;;;;2.88;2.17;;;;;;;;;;4706030;30;20049;-85
2023/07/04 07:28:38;;;;;;;2.95;2.38;;;;;;;;;;4702556;30;20559;-84
2023/07/04 07:31:06;;;;;;;2.63;2.10;;;;;;;;;;4706241;30;20517;-84
2023/07/04 07:33:34;;;;;;;2.30;2.10;;;;;;;;;;4706571;30;20049;-83
2023/07/04 07:36:13;;;;;;;2.53;2.33;;;;;;;;;;4695179;30;20759;-84
2023/07/04 07:38:40;;;;;;;3.05;2.38;;;;;;;;;;4708180;30;20115;-84
2023/07/04 07:41:08;;;;;;;3.50;2.30;;;;;;;;;;4707279;30;20144;-84
2023/07/04 07:43:37;;;;;;;3.95;2.25;;;;;;;;;;4703306;30;20061;-84
2023/07/04 07:46:09;;;;;;;2.70;2.50;;;;;;;;;;4702620;30;20072;-83
2023/07/04 07:48:37;;;;;;;2.25;2.05;;;;;;;;;;4701595;30;20063;-83
2023/07/04 07:51:07;;;;;;;2.40;2.20;;;;;;;;;;4703033;30;20145;-85
2023/07/04 07:53:36;;;;;;;5.05;2.50;;;;;;;;;;4703400;30;20114;-83
2023/07/04 07:56:04;;;;;;;2.78;2.50;;;;;;;;;;4704557;30;20053;-84
2023/07/04 07:58:31;;;;;;;3.33;2.70;;;;;;;;;;4700424;30;20091;-84
2023/07/04 08:00:59;;;;;;;1.95;1.83;;;;;;;;;;4709262;30;20061;-83
2023/07/04 08:03:27;;;;;;;1.83;1.65;;;;;;;;;;4704624;30;20533;-84
2023/07/04 08:05:55;;;;;;;2.42;1.73;;;;;;;;;;4703813;30;20053;-83
2023/07/04 08:08:22;;;;;;;2.47;1.92;;;;;;;;;;4710901;30;20069;-84
2023/07/04 08:10:50;;;;;;;2.08;1.85;;;;;;;;;;4708806;30;20580;-83
2023/07/04 08:13:18;;;;;;;3.33;2.30;;;;;;;;;;4711569;30;20090;-85
2023/07/04 08:15:55;;;;;;;1.73;1.63;;;;;;;;;;4710094;30;20056;-84
2023/07/04 08:18:24;;;;;;;1.80;1.70;;;;;;;;;;4711409;30;20482;-84
2023/07/04 08:20:58;;;;;;;1.80;1.70;;;;;;;;;;4707301;30;20536;-84
2023/07/04 08:23:26;;;;;;;1.70;1.60;;;;;;;;;;4709690;30;20546;-85
2023/07/04 08:25:53;;;;;;;2.35;1.77;;;;;;;;;;4707232;30;20550;-84
2023/07/04 08:28:26;;;;;;;2.10;1.90;;;;;;;;;;4706458;30;20063;-83
2023/07/04 08:30:53;;;;;;;1.98;1.50;;;;;;;;;;4708458;30;20061;-84
2023/07/04 08:33:21;;;;;;;1.98;1.58;;;;;;;;;;4705636;30;20159;-84
2023/07/04 08:35:57;;;;;;;3.20;1.80;;;;;;;;;;4708315;30;20045;-84
2023/07/04 08:38:25;;;;;;;2.60;1.63;;;;;;;;;;4713187;30;20060;-84
2023/07/04 08:40:52;;;;;;;1.80;1.60;;;;;;;;;;4707804;30;20053;-84
2023/07/04 08:43:25;;;;;;;1.73;1.63;;;;;;;;;;4713041;30;20445;-83
2023/07/04 08:45:53;;;;;;;1.67;1.58;;;;;;;;;;4714731;30;20508;-85
2023/07/04 08:48:21;;;;;;;1.80;1.70;;;;;;;;;;4717353;30;20061;-83
2023/07/04 08:50:49;;;;;;;1.58;1.38;;;;;;;;;;4712272;30;20528;-83
2023/07/04 08:53:22;;;;;;;1.35;1.35;;;;;;;;;;4708374;30;20049;-83
2023/07/04 08:55:56;;;;;;;1.50;1.38;;;;;;;;;;4713755;30;20091;-82
2023/07/04 08:58:27;;;;;;;1.30;1.20;;;;;;;;;;4714405;30;20064;-83
2023/07/04 09:00:56;;;;;;;1.25;1.10;;;;;;;;;;4708873;30;20103;-81
2023/07/04 09:03:28;;;;;;;1.30;1.20;;;;;;;;;;4712615;30;20053;-83
2023/07/04 09:06:14;;;;;;;1.40;1.30;;;;;;;;;;4713702;30;20516;-83
2023/07/04 09:09:01;;;;;;;1.40;1.30;;;;;;;;;;4714359;30;20057;-83
2023/07/04 09:11:29;;;;;;;1.45;1.35;;;;;;;;;;4712225;30;20076;-82
2023/07/04 09:13:59;;;;;;;1.33;1.17;;;;;;;;;;4705961;30;20057;-82
2023/07/04 09:16:38;;;;;;;1.60;1.50;;;;;;;;;;4710729;30;20057;-83
2023/07/04 09:19:07;;;;;;;1.25;1.23;;;;;;;;;;4706439;30;20168;-83
2023/07/04 09:21:39;;;;;;;1.58;1.48;;;;;;;;;;4704501;30;20113;-83
2023/07/04 09:24:07;;;;;;;1.90;1.77;;;;;;;;;;4703274;30;20057;-84
2023/07/04 09:26:41;;;;;;;1.70;1.60;;;;;;;;;;4712165;30;20054;-84
2023/07/04 09:29:08;;;;;;;1.95;1.30;;;;;;;;;;4713735;30;21822;-83
2023/07/04 09:31:46;;;;;;;1.33;1.23;;;;;;;;;;4707920;30;20087;-85
2023/07/04 09:34:31;;;;;;;1.20;1.10;;;;;;;;;;4712282;30;20053;-84
2023/07/04 09:37:08;;;;;;;1.02;1.00;;;;;;;;;;4708172;30;20061;-82
2023/07/04 09:39:47;;;;;;;1.00;1.00;;;;;;;;;;4711820;30;20076;-84
2023/07/04 09:42:45;;;;;;;1.80;1.40;;;;;;;;;;4713090;30;20053;-89
2023/07/04 09:46:21;;;;;;;1.20;1.10;;;;;;;;;;4710635;30;20072;-83
2023/07/04 09:48:48;;;;;;;1.27;1.17;;;;;;;;;;4713016;30;20049;-81
2023/07/04 09:51:20;;;;;;;1.42;1.33;;;;;;;;;;4711253;30;20672;-83
2023/07/04 09:53:48;;;;;;;1.02;1.00;;;;;;;;;;4710333;30;20045;-86
2023/07/04 09:56:34;;;;;;;1.02;1.02;;;;;;;;;;4714787;30;20064;-86
2023/07/04 09:59:26;;;;;;;1.52;1.23;;;;;;;;;;4714084;30;20056;-84
2023/07/04 10:02:17;;;;;;;1.40;1.30;;;;;;;;;;4717449;30;20057;-84
2023/07/04 10:05:27;;;;;;;1.25;1.17;;;;;;;;;;4732111;30;20536;-87
2023/07/04 10:08:27;;;;;;;1.63;1.52;;;;;;;;;;4681579;30;20441;-85
2023/07/04 10:10:57;;;;;;;1.10;1.00;;;;;;;;;;4714067;30;20135;-85
2023/07/04 10:13:27;;;;;;;1.00;1.00;;;;;;;;;;4709412;30;20084;-85
2023/07/04 10:15:57;;;;;;;1.15;0.95;;;;;;;;;;4722151;30;20057;-84
2023/07/04 10:18:32;;;;;;;1.02;0.90;;;;;;;;;;4711569;30;20060;-84
2023/07/04 10:24:26;;;;;;;1.00;1.00;;;;;;;;;;4713250;30;20057;-85
2023/07/04 10:27:03;;;;;;;0.95;0.90;;;;;;;;;;4714142;30;20332;-85
2023/07/04 10:29:33;;;;;;;1.83;1.20;;;;;;;;;;4714591;30;20056;-86
2023/07/04 10:32:21;;;;;;;0.80;0.80;;;;;;;;;;4713676;30;20075;-85
2023/07/04 10:34:50;;;;;;;1.10;1.00;;;;;;;;;;4712071;30;20432;-85
2023/07/04 10:41:39;;;;;;;1.40;1.30;;;;;;;;;;4675351;30;20538;-84
2023/07/04 10:44:13;;;;;;;0.80;0.80;;;;;;;;;;4667783;30;20111;-84
2023/07/04 10:51:03;;;;;;;1.45;1.08;;;;;;;;;;4678117;30;20065;-88
2023/07/04 10:58:27;;;;;;;1.00;1.00;;;;;;;;;;4677732;30;20080;-87
2023/07/04 11:01:18;;;;;;;2.22;1.30;;;;;;;;;;4679782;30;20719;-88
2023/07/04 11:03:49;;;;;;;1.08;0.90;;;;;;;;;;4679781;30;20061;-85
2023/07/04 11:06:24;;;;;;;0.80;0.80;;;;;;;;;;4672146;30;20054;-84
2023/07/04 11:08:52;;;;;;;0.90;0.90;;;;;;;;;;4676321;30;20046;-87
2023/07/04 11:11:25;;;;;;;0.80;0.80;;;;;;;;;;4677328;30;20046;-88
2023/07/04 11:14:37;;;;;;;1.00;0.90;;;;;;;;;;4664183;30;20049;-85
2023/07/04 11:17:07;;;;;;;1.13;0.90;;;;;;;;;;4699769;30;20061;-84
2023/07/04 11:19:35;;;;;;;0.98;0.90;;;;;;;;;;4711525;30;20355;-85
2023/07/04 11:22:03;;;;;;;0.88;0.88;;;;;;;;;;4705630;30;20093;-85
2023/07/04 11:24:34;;;;;;;0.93;0.93;;;;;;;;;;4709174;30;20056;-85
2023/07/04 11:27:13;;;;;;;1.10;1.00;;;;;;;;;;4709645;30;20136;-89
2023/07/04 11:29:53;;;;;;;0.90;0.80;;;;;;;;;;4707957;30;20424;-84
2023/07/04 11:32:37;;;;;;;2.40;0.80;;;;;;;;;;4713966;30;20052;-85
2023/07/04 11:35:10;;;;;;;0.65;0.60;;;;;;;;;;4706264;30;20318;-83
2023/07/04 11:37:41;;;;;;;0.63;0.63;;;;;;;;;;4706872;30;20048;-84
2023/07/04 11:40:18;;;;;;;0.90;0.90;;;;;;;;;;4701145;30;20421;-85
2023/07/04 11:45:39;;;;;;;0.70;0.70;;;;;;;;;;4706904;30;20057;-84
2023/07/04 11:48:12;;;;;;;0.82;0.70;;;;;;;;;;4708315;30;20794;-83
2023/07/04 11:50:44;;;;;;;0.70;0.70;;;;;;;;;;4712551;30;20052;-84
2023/07/04 11:53:18;;;;;;;0.80;0.80;;;;;;;;;;4711069;30;20139;-84
2023/07/04 11:56:03;;;;;;;1.10;0.98;;;;;;;;;;4710952;30;20115;-85
2023/07/04 11:58:31;;;;;;;0.75;0.75;;;;;;;;;;4707612;30;20157;-84
2023/07/04 12:01:05;;;;;;;2.55;0.80;;;;;;;;;;4702965;30;20099;-88
2023/07/04 12:03:42;;;;;;;1.58;1.00;;;;;;;;;;4712993;30;20776;-85
2023/07/04 12:06:10;;;;;;;0.80;0.80;;;;;;;;;;4713853;30;20061;-85
2023/07/04 12:08:45;;;;;;;0.80;0.80;;;;;;;;;;4705609;30;20056;-86
2023/07/04 12:11:22;;;;;;;0.77;0.77;;;;;;;;;;4712167;30;20046;-85
2023/07/04 12:13:50;;;;;;;0.68;0.68;;;;;;;;;;4699650;30;20468;-85
2023/07/04 12:16:21;;;;;;;1.45;0.70;;;;;;;;;;4708793;30;20064;-85
2023/07/04 12:18:52;;;;;;;0.68;0.68;;;;;;;;;;4712074;30;21675;-87
2023/07/04 12:22:15;;;;;;;1.00;0.88;;;;;;;;;;4710745;30;20057;-86
2023/07/04 12:25:08;;;;;;;0.80;0.80;;;;;;;;;;4709680;30;20053;-87
2023/07/04 12:27:56;;;;;;;0.77;0.75;;;;;;;;;;4710628;30;20531;-86
2023/07/04 12:31:01;;;;;;;0.80;0.80;;;;;;;;;;4711244;30;20057;-88
2023/07/04 12:34:46;;;;;;;0.60;0.60;;;;;;;;;;4721630;30;20052;-87
2023/07/04 12:41:01;;;;;;;3.35;0.80;;;;;;;;;;4725958;30;20041;-86
2023/07/04 12:47:39;;;;;;;0.60;0.60;;;;;;;;;;4709818;30;20052;-87
2023/07/04 12:50:39;;;;;;;0.80;0.80;;;;;;;;;;4710671;30;20729;-85
2023/07/04 12:53:10;;;;;;;0.60;0.60;;;;;;;;;;4709692;30;20095;-84
2023/07/04 12:55:40;;;;;;;0.60;0.60;;;;;;;;;;4707426;30;20065;-86
2023/07/04 12:58:15;;;;;;;1.08;0.82;;;;;;;;;;4710568;30;20084;-88
2023/07/04 13:01:02;;;;;;;0.80;0.80;;;;;;;;;;4711694;30;20041;-88
2023/07/04 13:03:46;;;;;;;0.80;0.75;;;;;;;;;;4706488;30;20053;-86
2023/07/04 13:06:33;;;;;;;;;;;;;;;;;;;;;
2023/07/04 13:09:10;;;;;;;1.48;0.73;;;;;;;;;;4710731;30;19957;-87
2023/07/04 13:12:02;;;;;;;0.70;0.70;;;;;;;;;;4723845;30;20525;-87
2023/07/04 13:14:30;;;;;;;1.25;0.70;;;;;;;;;;4710073;30;20053;-86
2023/07/04 13:29:05;;;;;;;3.53;0.90;;;;;;;;;;4711720;30;20041;-88
2023/07/04 13:32:03;;;;;;;0.50;0.50;;;;;;;;;;4715867;30;20057;-86
2023/07/04 13:34:42;;;;;;;0.55;0.52;;;;;;;;;;4714821;30;20049;-85
2023/07/04 13:37:37;;;;;;;1.10;1.00;;;;;;;;;;4714674;30;20170;-89
2023/07/04 13:40:20;;;;;;;0.90;0.70;;;;;;;;;;4710161;30;20057;-88
2023/07/04 13:43:08;;;;;;;0.60;0.60;;;;;;;;;;4723224;30;20619;-86
2023/07/04 13:45:39;;;;;;;1.90;0.60;;;;;;;;;;4719246;30;20107;-85
2023/07/04 13:48:09;;;;;;;0.80;0.80;;;;;;;;;;4708592;30;20045;-85
2023/07/04 13:50:37;;;;;;;0.82;0.77;;;;;;;;;;4707398;30;20060;-86
2023/07/04 13:53:07;;;;;;;0.55;0.55;;;;;;;;;;4706921;30;20119;-84
2023/07/04 14:13:34;;;;;;;1.10;0.80;;;;;;;;;;4699663;30;20049;-86
2023/07/04 14:16:17;;;;;;;0.50;0.50;;;;;;;;;;4742548;30;20079;-78
2023/07/04 14:19:05;;;;;;;1.00;1.00;;;;;;;;;;4745150;30;20591;-78
2023/07/04 14:21:35;;;;;;;1.05;0.75;;;;;;;;;;4735905;30;20083;-78
2023/07/04 14:24:03;;;;;;;0.82;0.82;;;;;;;;;;4716599;30;20539;-78
2023/07/04 14:26:30;;;;;;;0.70;0.70;;;;;;;;;;4721690;30;20509;-78
2023/07/04 14:28:58;;;;;;;0.80;0.80;;;;;;;;;;4743549;24;20108;-76
2023/07/04 14:31:25;;;;;;;0.73;0.70;;;;;;;;;;4736710;30;20048;-76
2023/07/04 14:33:55;;;;;;;0.73;0.73;;;;;;;;;;4735176;30;20523;-76
2023/07/04 14:36:22;;;;;;;1.50;0.80;;;;;;;;;;4733499;30;20128;-77
2023/07/04 14:38:50;;;;;;;0.80;0.80;;;;;;;;;;4733635;30;20136;-78
2023/07/04 14:41:17;;;;;;;0.70;0.70;;;;;;;;;;4736787;30;20067;-78
2023/07/04 14:43:47;;;;;;;0.80;0.80;;;;;;;;;;4738028;30;20084;-77
2023/07/04 14:46:15;;;;;;;1.42;0.70;;;;;;;;;;4731127;30;20135;-78
2023/07/04 14:48:43;;;;;;;0.82;0.82;;;;;;;;;;4741560;30;20112;-77
2023/07/04 14:51:11;;;;;;;0.63;0.63;;;;;;;;;;4740633;30;20113;-78
2023/07/04 14:53:39;;;;;;;0.63;0.63;;;;;;;;;;4735059;30;20091;-77
2023/07/04 14:56:08;;;;;;;0.68;0.68;;;;;;;;;;4733013;30;20081;-77
2023/07/04 14:58:36;;;;;;;1.00;0.80;;;;;;;;;;4739827;30;20198;-78
2023/07/04 15:01:05;;;;;;;0.60;0.60;;;;;;;;;;4738814;30;20055;-77
2023/07/04 15:03:34;;;;;;;1.73;0.80;;;;;;;;;;4736293;30;20045;-78
2023/07/04 15:06:03;;;;;;;0.65;0.65;;;;;;;;;;4740025;30;20061;-76
2023/07/04 15:08:31;;;;;;;0.85;0.75;;;;;;;;;;4741575;30;20136;-77
2023/07/04 15:10:59;;;;;;;0.70;0.70;;;;;;;;;;4743005;30;20052;-78
2023/07/04 15:13:27;;;;;;;0.70;0.70;;;;;;;;;;4740797;30;20131;-77
2023/07/04 15:15:57;;;;;;;0.70;0.70;;;;;;;;;;4743363;30;20048;-77
2023/07/04 15:18:24;;;;;;;1.40;0.90;;;;;;;;;;4740544;30;20061;-78
2023/07/04 15:20:52;;;;;;;1.05;0.82;;;;;;;;;;4741216;30;20057;-77
2023/07/04 15:23:20;;;;;;;0.55;0.55;;;;;;;;;;4742446;30;20147;-78
2023/07/04 15:25:52;;;;;;;0.95;0.90;;;;;;;;;;4735415;30;20063;-77
2023/07/04 15:28:21;;;;;;;0.70;0.70;;;;;;;;;;4736524;30;20057;-77
2023/07/04 15:30:53;;;;;;;0.85;0.85;;;;;;;;;;4738742;30;20059;-77
2023/07/04 15:33:21;;;;;;;0.70;0.70;;;;;;;;;;4738275;30;20067;-76
2023/07/04 15:35:49;;;;;;;1.63;0.93;;;;;;;;;;4735184;30;20064;-77
2023/07/04 15:38:20;;;;;;;0.80;0.80;;;;;;;;;;4730354;30;20114;-77
2023/07/04 15:40:49;;;;;;;0.80;0.80;;;;;;;;;;4726707;30;20124;-77
2023/07/04 15:43:18;;;;;;;1.40;0.90;;;;;;;;;;4733080;30;20487;-76
2023/07/04 15:45:46;;;;;;;1.20;0.85;;;;;;;;;;4731339;30;20052;-75
2023/07/04 15:48:13;;;;;;;0.70;0.70;;;;;;;;;;4728521;30;20468;-77
2023/07/04 15:50:41;;;;;;;2.72;1.33;;;;;;;;;;4734273;30;20057;-75
2023/07/04 15:53:09;;;;;;;1.00;0.93;;;;;;;;;;4728541;30;20091;-77
2023/07/04 15:55:36;;;;;;;1.63;0.90;;;;;;;;;;4720937;30;20500;-76
2023/07/04 15:58:04;;;;;;;1.10;1.00;;;;;;;;;;4724870;30;20156;-76
2023/07/04 16:00:32;;;;;;;0.68;0.68;;;;;;;;;;4728119;30;20148;-77
2023/07/04 16:03:00;;;;;;;0.88;0.88;;;;;;;;;;4727097;30;20479;-76
2023/07/04 16:05:28;;;;;;;3.40;0.77;;;;;;;;;;4740440;30;20080;-78
2023/07/04 16:07:56;;;;;;;0.80;0.80;;;;;;;;;;4738884;30;20053;-77